Spirit Of New York — WCW9332 — position and weather

sailwx.info

Track history (hours):
 
Tides and Currents Weather Stations Pressure Air Temp Water Temp Dewpoint Dewpoint Depression Visibility Wind Speed Wind Dir Waves Ship Positions

Spirit Of New York

Owner: SPIRIT CRUISES LLC, NEW YORK, NY. More information available from US FCC via Universal Licensing System and Coast Guard Vessel Documentation Center.

Last reported at 2014-Nov-23 00:33 UTC. Time now 2014-Nov-23 01:14 UTC.
Position N 40°44' W 074°01'.

Length 62 m.

Type: Passenger vessel. MMSI: 338897000.

Date/timePositionNaut miles runAvg speedWind from/ knotsBaromVisibWave heightAir tempDewpointWater temp
2014-Nov-23 00:33N 40°44' W 074°01'2 1.6
2014-Nov-22 23:33N 40°46' W 074°01'1 0.8
2014-Nov-22 22:33N 40°45' W 074°01'0 0.0
2014-Nov-22 21:33N 40°45' W 074°01'0 0.0
2014-Nov-22 20:33N 40°45' W 074°01'0 0.0
2014-Nov-22 19:33N 40°45' W 074°01'1 0.9
2014-Nov-22 18:33N 40°44' W 074°01'2 1.6
2014-Nov-22 17:33N 40°43' W 074°02'2 2.5
2014-Nov-22 16:33N 40°45' W 074°01'0 0.0
2014-Nov-22 15:33N 40°45' W 074°01'0 0.0
2014-Nov-22 14:33N 40°45' W 074°01'1 0.1
2014-Nov-22 02:33N 40°44' W 074°01'2 2.3
2014-Nov-22 01:34N 40°42' W 074°01'3 2.8
2014-Nov-22 00:33N 40°45' W 074°01'0 0.3
2014-Nov-21 23:34N 40°45' W 074°01'0 0.0
2014-Nov-21 22:33N 40°45' W 074°01'0 0.0
2014-Nov-21 21:33N 40°45' W 074°01'0 0.0
2014-Nov-21 20:33N 40°45' W 074°01'0 0.0
2014-Nov-21 19:33N 40°45' W 074°01'2 2.1
2014-Nov-21 18:34N 40°43' W 074°01'0 0.4
2014-Nov-21 17:34N 40°43' W 074°01'2 0.1
2014-Nov-21 04:16N 40°45' W 074°01'3 3.8
2014-Nov-21 03:33N 40°42' W 073°59'3 3.1
2014-Nov-21 02:27N 40°46' W 074°01'  
2014-Nov-16 02:33N 40°44' W 074°01'2 1.6
2014-Nov-16 01:33N 40°42' W 073°60'4 3.8
2014-Nov-16 00:33N 40°46' W 074°00'1 1.2
2014-Nov-15 23:33N 40°45' W 074°01'0 0.0
2014-Nov-15 22:33N 40°45' W 074°01'0 0.0
2014-Nov-15 21:33N 40°45' W 074°01'0 0.0
2014-Nov-15 20:33N 40°45' W 074°01'0 0.0
2014-Nov-15 19:33N 40°45' W 074°01'1 1.3
2014-Nov-15 18:33N 40°44' W 074°01'0 0.5
2014-Nov-15 17:33N 40°43' W 074°01'2 1.8
2014-Nov-15 16:33N 40°45' W 074°01'0 0.0
2014-Nov-15 03:15N 40°45' W 074°01'1 1.8
2014-Nov-15 02:33N 40°44' W 074°01'2 1.7
2014-Nov-15 01:33N 40°42' W 073°60'3 3.4
2014-Nov-15 00:33N 40°46' W 074°01'1 0.8
2014-Nov-14 23:33N 40°45' W 074°01'0 0.0
2014-Nov-13 18:28N 40°45' W 074°01'0 0.0
2014-Nov-13 17:34N 40°45' W 074°01'0 0.0
2014-Nov-13 16:33N 40°45' W 074°01'0 0.0
2014-Nov-13 15:34N 40°45' W 074°01'0 0.0
2014-Nov-13 14:34N 40°45' W 074°01'  
Track history (hours):
 
Tides and Currents Weather Stations Pressure Air Temp Water Temp Dewpoint Dewpoint Depression Visibility Wind Speed Wind Dir Waves Ship Positions

Spirit Of New York

Owner: SPIRIT CRUISES LLC, NEW YORK, NY. More information available from US FCC via Universal Licensing System and Coast Guard Vessel Documentation Center.

Last reported at 2014-Nov-23 00:33 UTC. Time now 2014-Nov-23 01:14 UTC.
Position N 40°44' W 074°01'.

Length 62 m.

Type: Passenger vessel. MMSI: 338897000.

Date/timePositionNaut miles runAvg speedWind from/ knotsBaromVisibWave heightAir tempDewpointWater temp
2014-Nov-23 00:33N 40°44' W 074°01'2 1.6
2014-Nov-22 23:33N 40°46' W 074°01'1 0.8
2014-Nov-22 22:33N 40°45' W 074°01'0 0.0
2014-Nov-22 21:33N 40°45' W 074°01'0 0.0
2014-Nov-22 20:33N 40°45' W 074°01'0 0.0
2014-Nov-22 19:33N 40°45' W 074°01'1 0.9
2014-Nov-22 18:33N 40°44' W 074°01'2 1.6
2014-Nov-22 17:33N 40°43' W 074°02'2 2.5
2014-Nov-22 16:33N 40°45' W 074°01'0 0.0
2014-Nov-22 15:33N 40°45' W 074°01'0 0.0
2014-Nov-22 14:33N 40°45' W 074°01'1 0.1
2014-Nov-22 02:33N 40°44' W 074°01'2 2.3
2014-Nov-22 01:34N 40°42' W 074°01'3 2.8
2014-Nov-22 00:33N 40°45' W 074°01'0 0.3
2014-Nov-21 23:34N 40°45' W 074°01'0 0.0
2014-Nov-21 22:33N 40°45' W 074°01'0 0.0
2014-Nov-21 21:33N 40°45' W 074°01'0 0.0
2014-Nov-21 20:33N 40°45' W 074°01'0 0.0
2014-Nov-21 19:33N 40°45' W 074°01'2 2.1
2014-Nov-21 18:34N 40°43' W 074°01'0 0.4
2014-Nov-21 17:34N 40°43' W 074°01'2 0.1
2014-Nov-21 04:16N 40°45' W 074°01'3 3.8
2014-Nov-21 03:33N 40°42' W 073°59'3 3.1
2014-Nov-21 02:27N 40°46' W 074°01'  
2014-Nov-16 02:33N 40°44' W 074°01'2 1.6
2014-Nov-16 01:33N 40°42' W 073°60'4 3.8
2014-Nov-16 00:33N 40°46' W 074°00'1 1.2
2014-Nov-15 23:33N 40°45' W 074°01'0 0.0
2014-Nov-15 22:33N 40°45' W 074°01'0 0.0
2014-Nov-15 21:33N 40°45' W 074°01'0 0.0
2014-Nov-15 20:33N 40°45' W 074°01'0 0.0
2014-Nov-15 19:33N 40°45' W 074°01'1 1.3
2014-Nov-15 18:33N 40°44' W 074°01'0 0.5
2014-Nov-15 17:33N 40°43' W 074°01'2 1.8
2014-Nov-15 16:33N 40°45' W 074°01'0 0.0
2014-Nov-15 03:15N 40°45' W 074°01'1 1.8
2014-Nov-15 02:33N 40°44' W 074°01'2 1.7
2014-Nov-15 01:33N 40°42' W 073°60'3 3.4
2014-Nov-15 00:33N 40°46' W 074°01'1 0.8
2014-Nov-14 23:33N 40°45' W 074°01'0 0.0
2014-Nov-13 18:28N 40°45' W 074°01'0 0.0
2014-Nov-13 17:34N 40°45' W 074°01'0 0.0
2014-Nov-13 16:33N 40°45' W 074°01'0 0.0
2014-Nov-13 15:34N 40°45' W 074°01'0 0.0
2014-Nov-13 14:34N 40°45' W 074°01'  

Dump ship's entire track history